Time;durP1;ratioP1;P1;durP2;ratioP2;P2;SDS_P1;SDS_P2;PMS_P1;PMS_P2;Temp;Humidity;BMP_temperature;BMP_pressure;BME280_temperature;BME280_humidity;BME280_pressure;Samples;Min_cycle;Max_cycle;Signal;HPM_P1;HPM_P2
2023/12/09 00:02:55;;;;;;;14.10;9.50;;;;;;;;;;103822;1289;544808;-75
2023/12/09 00:06:36;;;;;;;12.50;8.40;;;;;;;;;;103827;1291;544920;-80
2023/12/09 00:10:14;;;;;;;11.70;8.30;;;;;;;;;;103890;1291;545130;-75
2023/12/09 00:13:56;;;;;;;11.90;8.50;;;;;;;;;;103838;1292;547952;-73
2023/12/09 00:17:30;;;;;;;14.40;8.60;;;;;;;;;;103847;1288;545102;-74
2023/12/09 00:21:06;;;;;;;12.90;8.70;;;;;;;;;;103748;1295;544786;-74
2023/12/09 00:24:44;;;;;;;12.90;8.80;;;;;;;;;;104467;1282;544805;-77
2023/12/09 00:28:21;;;;;;;13.70;9.30;;;;;;;;;;103866;1290;544770;-74
2023/12/09 00:31:58;;;;;;;14.20;10.00;;;;;;;;;;103900;1292;546378;-78
2023/12/09 00:35:36;;;;;;;13.90;9.10;;;;;;;;;;103878;1289;545753;-78
2023/12/09 00:39:14;;;;;;;12.80;8.80;;;;;;;;;;104044;1288;544932;-74
2023/12/09 00:42:52;;;;;;;13.50;9.30;;;;;;;;;;103853;1289;545415;-76
2023/12/09 00:46:28;;;;;;;13.30;9.70;;;;;;;;;;103810;1292;544852;-75
2023/12/09 00:50:11;;;;;;;15.60;10.50;;;;;;;;;;103866;1288;546445;-75
2023/12/09 00:53:52;;;;;;;13.30;9.30;;;;;;;;;;103841;1292;547861;-81
2023/12/09 00:57:34;;;;;;;13.50;9.20;;;;;;;;;;103688;1293;545258;-74
2023/12/09 01:00:59;;;;;;;15.00;10.70;;;;;;;;;;104385;1285;544937;-81
2023/12/09 01:05:04;;;;;;;15.40;11.20;;;;;;;;;;103578;1294;547889;-75
2023/12/09 01:08:43;;;;;;;16.90;11.10;;;;;;;;;;103624;1291;548424;-78
2023/12/09 01:12:00;;;;;;;15.80;10.50;;;;;;;;;;103660;1293;545205;-80
2023/12/09 01:15:32;;;;;;;15.10;10.60;;;;;;;;;;103773;1289;544857;-77
2023/12/09 01:19:26;;;;;;;15.10;11.00;;;;;;;;;;103810;1291;544946;-76
2023/12/09 01:22:49;;;;;;;17.30;12.80;;;;;;;;;;103652;1288;545922;-73
2023/12/09 01:26:23;;;;;;;17.10;11.80;;;;;;;;;;103799;1295;544849;-75
2023/12/09 01:30:07;;;;;;;18.00;11.10;;;;;;;;;;103674;1293;548054;-80
2023/12/09 01:33:49;;;;;;;15.50;11.20;;;;;;;;;;103667;1289;549983;-76
2023/12/09 01:37:16;;;;;;;16.50;11.90;;;;;;;;;;103683;1291;549282;-76
2023/12/09 01:41:01;;;;;;;18.20;12.70;;;;;;;;;;103652;1292;545448;-74
2023/12/09 01:44:30;;;;;;;17.00;11.50;;;;;;;;;;103828;1294;545009;-75
2023/12/09 01:48:12;;;;;;;15.40;10.90;;;;;;;;;;104134;1289;547934;-74
2023/12/09 01:51:43;;;;;;;16.20;11.40;;;;;;;;;;103799;1290;545675;-73
2023/12/09 01:55:34;;;;;;;15.90;11.50;;;;;;;;;;103661;1289;547949;-75
2023/12/09 01:58:58;;;;;;;17.20;12.50;;;;;;;;;;103804;1292;544840;-78
2023/12/09 02:02:40;;;;;;;16.40;11.50;;;;;;;;;;103744;1305;547839;-78
2023/12/09 02:06:13;;;;;;;15.80;10.90;;;;;;;;;;103766;1292;544800;-74
2023/12/09 02:09:57;;;;;;;17.00;12.30;;;;;;;;;;103707;1290;547970;-75
2023/12/09 02:13:33;;;;;;;16.90;12.40;;;;;;;;;;104054;1290;544991;-74
2023/12/09 02:17:23;;;;;;;18.60;13.30;;;;;;;;;;103639;1291;544865;-74
2023/12/09 02:20:43;;;;;;;18.90;12.30;;;;;;;;;;103782;1292;545377;-77
2023/12/09 02:24:21;;;;;;;15.70;11.10;;;;;;;;;;103931;1292;545014;-79
2023/12/09 02:27:59;;;;;;;17.90;12.20;;;;;;;;;;103777;1289;545023;-74
2023/12/09 02:31:53;;;;;;;17.50;12.70;;;;;;;;;;103655;1292;547894;-79
2023/12/09 02:35:14;;;;;;;19.80;14.40;;;;;;;;;;103829;1296;544718;-73
2023/12/09 02:38:51;;;;;;;18.20;12.30;;;;;;;;;;103925;1291;545182;-74
2023/12/09 02:42:38;;;;;;;16.50;11.60;;;;;;;;;;103466;1293;547944;-79
2023/12/09 02:46:05;;;;;;;15.50;10.70;;;;;;;;;;103853;1290;545000;-74
2023/12/09 02:49:46;;;;;;;16.90;11.60;;;;;;;;;;103704;1290;547949;-75
2023/12/09 02:53:29;;;;;;;14.90;10.50;;;;;;;;;;103561;1294;545538;-73
2023/12/09 02:56:57;;;;;;;15.30;10.10;;;;;;;;;;103779;1292;545500;-73
2023/12/09 03:00:37;;;;;;;15.10;10.80;;;;;;;;;;103982;1289;545325;-76
2023/12/09 03:04:20;;;;;;;13.90;9.70;;;;;;;;;;103670;1304;546875;-80
2023/12/09 03:07:52;;;;;;;14.40;10.10;;;;;;;;;;103816;1291;544928;-73
2023/12/09 03:11:36;;;;;;;13.70;9.20;;;;;;;;;;103502;1297;545259;-83
2023/12/09 03:15:06;;;;;;;12.80;9.40;;;;;;;;;;103763;1295;544827;-73
2023/12/09 03:18:44;;;;;;;14.10;9.80;;;;;;;;;;103813;1292;544954;-79
2023/12/09 03:22:20;;;;;;;14.40;9.40;;;;;;;;;;103745;1290;545060;-77
2023/12/09 03:25:56;;;;;;;13.70;8.40;;;;;;;;;;103813;1289;545366;-72
2023/12/09 03:29:37;;;;;;;13.90;8.80;;;;;;;;;;103793;1290;544940;-80
2023/12/09 03:33:14;;;;;;;14.40;9.80;;;;;;;;;;103719;1291;544968;-75
2023/12/09 03:36:53;;;;;;;13.20;9.20;;;;;;;;;;103731;1292;547680;-74
2023/12/09 03:40:27;;;;;;;12.70;8.40;;;;;;;;;;103837;1290;545120;-79
2023/12/09 03:44:04;;;;;;;14.20;9.50;;;;;;;;;;103810;1291;545457;-72
2023/12/09 03:47:45;;;;;;;14.30;9.30;;;;;;;;;;103807;1292;545524;-73
2023/12/09 03:51:19;;;;;;;13.30;9.30;;;;;;;;;;103782;1290;546414;-76
2023/12/09 03:54:57;;;;;;;12.80;9.00;;;;;;;;;;104020;1289;545006;-73
2023/12/09 03:58:34;;;;;;;12.80;8.50;;;;;;;;;;103988;1288;544920;-74
2023/12/09 04:02:11;;;;;;;13.20;9.00;;;;;;;;;;103825;1289;545019;-75
2023/12/09 04:05:45;;;;;;;13.80;9.50;;;;;;;;;;103995;1289;544743;-81
2023/12/09 04:09:30;;;;;;;15.00;10.10;;;;;;;;;;103787;1290;545673;-73
2023/12/09 04:13:04;;;;;;;14.00;9.70;;;;;;;;;;103763;1289;547939;-71
2023/12/09 04:16:42;;;;;;;14.00;9.40;;;;;;;;;;103810;1292;545455;-77
2023/12/09 04:20:19;;;;;;;15.10;9.90;;;;;;;;;;104179;1285;544944;-74
2023/12/09 04:24:06;;;;;;;15.90;11.30;;;;;;;;;;103609;1294;545846;-74
2023/12/09 04:27:34;;;;;;;15.10;10.50;;;;;;;;;;103751;1292;544751;-78
2023/12/09 04:31:11;;;;;;;14.60;10.00;;;;;;;;;;103741;1288;545210;-74
2023/12/09 04:34:49;;;;;;;14.70;10.20;;;;;;;;;;103758;1289;545024;-76
2023/12/09 04:38:25;;;;;;;16.30;11.50;;;;;;;;;;103608;1298;545462;-75
2023/12/09 04:42:04;;;;;;;18.20;12.90;;;;;;;;;;103832;1289;544869;-73
2023/12/09 04:45:41;;;;;;;18.00;12.40;;;;;;;;;;104161;1289;545081;-74
2023/12/09 04:49:26;;;;;;;16.20;11.20;;;;;;;;;;103661;1289;549214;-80
2023/12/09 04:53:18;;;;;;;17.50;12.80;;;;;;;;;;103703;1294;545094;-74
2023/12/09 04:56:44;;;;;;;18.90;12.90;;;;;;;;;;103691;1289;548052;-75
2023/12/09 05:00:10;;;;;;;19.40;13.30;;;;;;;;;;103824;1289;545547;-72
2023/12/09 05:03:48;;;;;;;17.80;11.90;;;;;;;;;;103587;1294;547950;-74
2023/12/09 05:07:27;;;;;;;16.10;10.90;;;;;;;;;;103791;1289;545557;-76
2023/12/09 05:11:04;;;;;;;19.40;12.60;;;;;;;;;;103710;1292;546040;-74
2023/12/09 05:14:38;;;;;;;19.40;13.50;;;;;;;;;;104084;1289;545431;-73
2023/12/09 05:18:19;;;;;;;20.40;14.50;;;;;;;;;;103729;1289;544929;-78
2023/12/09 05:21:58;;;;;;;19.30;13.20;;;;;;;;;;103788;1291;544825;-75
2023/12/09 05:25:37;;;;;;;17.40;11.80;;;;;;;;;;103700;1290;548111;-77
2023/12/09 05:29:10;;;;;;;21.40;14.20;;;;;;;;;;104282;1286;544832;-76
2023/12/09 05:32:49;;;;;;;20.80;13.60;;;;;;;;;;103869;1288;545290;-74
2023/12/09 05:36:26;;;;;;;26.40;15.40;;;;;;;;;;103987;1289;545392;-74
2023/12/09 05:40:04;;;;;;;24.90;14.30;;;;;;;;;;103781;1292;546436;-74
2023/12/09 05:43:43;;;;;;;30.30;17.50;;;;;;;;;;103662;1294;545188;-74
2023/12/09 05:47:17;;;;;;;28.30;15.60;;;;;;;;;;103832;1292;544827;-75
2023/12/09 05:50:55;;;;;;;23.80;14.70;;;;;;;;;;103793;1290;544847;-72
2023/12/09 05:54:34;;;;;;;21.80;13.40;;;;;;;;;;103820;1291;545547;-73
2023/12/09 05:58:13;;;;;;;21.20;13.10;;;;;;;;;;103864;1291;544974;-74
2023/12/09 06:01:48;;;;;;;21.50;13.30;;;;;;;;;;103944;1289;545096;-73
2023/12/09 06:05:26;;;;;;;21.60;13.50;;;;;;;;;;103887;1289;544857;-73
2023/12/09 06:09:04;;;;;;;22.00;13.50;;;;;;;;;;103621;1293;545074;-74
2023/12/09 06:12:57;;;;;;;21.70;12.50;;;;;;;;;;103693;1291;545344;-75
2023/12/09 06:16:18;;;;;;;18.20;10.90;;;;;;;;;;103867;1289;544966;-74
2023/12/09 06:20:08;;;;;;;19.70;12.40;;;;;;;;;;103601;1291;545247;-83
2023/12/09 06:23:53;;;;;;;20.80;13.30;;;;;;;;;;103680;1294;547896;-73
2023/12/09 06:27:18;;;;;;;19.30;12.30;;;;;;;;;;103456;1294;547789;-73
2023/12/09 06:30:57;;;;;;;20.10;11.90;;;;;;;;;;104001;1287;545275;-75
2023/12/09 06:34:25;;;;;;;17.80;11.20;;;;;;;;;;103816;1295;545577;-75
2023/12/09 06:38:06;;;;;;;17.50;11.20;;;;;;;;;;103521;1292;549141;-75
2023/12/09 06:41:41;;;;;;;17.80;12.80;;;;;;;;;;103754;1292;546811;-74
2023/12/09 06:45:26;;;;;;;15.90;10.90;;;;;;;;;;104108;1288;548424;-80
2023/12/09 06:48:55;;;;;;;16.60;10.80;;;;;;;;;;103742;1291;545642;-77
2023/12/09 06:52:39;;;;;;;16.10;10.30;;;;;;;;;;103631;1291;547951;-82
2023/12/09 06:56:30;;;;;;;17.10;11.10;;;;;;;;;;103705;1294;548060;-78
2023/12/09 06:59:56;;;;;;;16.70;10.20;;;;;;;;;;103629;1290;546909;-80
2023/12/09 07:03:25;;;;;;;17.50;10.20;;;;;;;;;;103872;1288;545394;-74
2023/12/09 07:11:04;;;;;;;18.20;11.40;;;;;;;;;;103704;1292;545848;-75
2023/12/09 07:14:16;;;;;;;22.30;16.00;;;;;;;;;;103610;1294;545182;-74
2023/12/09 07:17:54;;;;;;;27.30;18.10;;;;;;;;;;104110;1286;546449;-75
2023/12/09 07:21:36;;;;;;;23.00;13.70;;;;;;;;;;103631;1291;549295;-75
2023/12/09 07:25:09;;;;;;;20.10;12.80;;;;;;;;;;103818;1302;545668;-74
2023/12/09 07:28:55;;;;;;;26.20;15.80;;;;;;;;;;103602;1291;549180;-77
2023/12/09 07:32:24;;;;;;;40.30;18.70;;;;;;;;;;103726;1291;545040;-79
2023/12/09 07:36:02;;;;;;;28.60;13.40;;;;;;;;;;104234;1288;544733;-75
2023/12/09 07:39:40;;;;;;;32.60;15.70;;;;;;;;;;103729;1291;544750;-75
2023/12/09 07:43:25;;;;;;;31.30;15.40;;;;;;;;;;103760;1288;547373;-81
2023/12/09 07:46:54;;;;;;;31.00;16.40;;;;;;;;;;103664;1291;544893;-77
2023/12/09 07:50:28;;;;;;;43.90;19.40;;;;;;;;;;103927;1291;544823;-75
2023/12/09 07:54:22;;;;;;;36.90;17.10;;;;;;;;;;103939;1289;544866;-75
2023/12/09 07:57:48;;;;;;;25.60;13.60;;;;;;;;;;103962;1289;545133;-77
2023/12/09 08:01:26;;;;;;;23.10;13.20;;;;;;;;;;103919;1288;545939;-79
2023/12/09 08:05:02;;;;;;;27.10;15.10;;;;;;;;;;103728;1292;545511;-77
2023/12/09 08:08:39;;;;;;;26.60;13.60;;;;;;;;;;104563;1283;544931;-74
2023/12/09 08:12:16;;;;;;;31.50;16.60;;;;;;;;;;103794;1288;544726;-77
2023/12/09 08:15:54;;;;;;;33.60;18.30;;;;;;;;;;103883;1304;545026;-75
2023/12/09 08:19:31;;;;;;;28.00;14.80;;;;;;;;;;103764;1295;544775;-75
2023/12/09 08:23:14;;;;;;;22.50;14.00;;;;;;;;;;103646;1293;544981;-78
2023/12/09 08:26:56;;;;;;;19.40;11.20;;;;;;;;;;103905;1291;546517;-76
2023/12/09 08:30:24;;;;;;;20.40;12.20;;;;;;;;;;103756;1290;545027;-75
2023/12/09 08:34:07;;;;;;;28.20;16.90;;;;;;;;;;104030;1292;545900;-75
2023/12/09 08:37:39;;;;;;;23.20;14.70;;;;;;;;;;103894;1290;546453;-75
2023/12/09 08:41:45;;;;;;;17.90;11.90;;;;;;;;;;103928;1296;546296;-79
2023/12/09 08:44:55;;;;;;;19.60;12.50;;;;;;;;;;104566;1286;546232;-75
2023/12/09 08:48:31;;;;;;;18.70;10.40;;;;;;;;;;103899;1289;545468;-76
2023/12/09 08:52:14;;;;;;;19.80;13.00;;;;;;;;;;103861;1291;544830;-77
2023/12/09 08:55:54;;;;;;;29.70;19.30;;;;;;;;;;103667;1291;548037;-79
2023/12/09 08:59:24;;;;;;;18.70;12.90;;;;;;;;;;103856;1289;544835;-78
2023/12/09 09:03:03;;;;;;;20.10;12.80;;;;;;;;;;103806;1292;544886;-77
2023/12/09 09:06:42;;;;;;;20.30;12.70;;;;;;;;;;103621;1291;545834;-78
2023/12/09 09:10:26;;;;;;;26.00;16.50;;;;;;;;;;104698;1292;548206;-78
2023/12/09 09:13:53;;;;;;;23.70;14.20;;;;;;;;;;103759;1295;545653;-77
2023/12/09 09:17:39;;;;;;;22.90;14.70;;;;;;;;;;103803;1292;547936;-85
2023/12/09 09:21:57;;;;;;;24.20;14.40;;;;;;;;;;104058;1286;545536;-77
2023/12/09 09:25:03;;;;;;;;;;;;;;;;;;;;;
2023/12/09 09:28:37;;;;;;;25.80;15.80;;;;;;;;;;103646;1292;549192;-81
2023/12/09 09:32:09;;;;;;;18.10;11.10;;;;;;;;;;103639;1292;547964;-82
2023/12/09 09:35:41;;;;;;;18.50;11.70;;;;;;;;;;103746;1291;545510;-76
2023/12/09 09:39:19;;;;;;;17.80;10.80;;;;;;;;;;103737;1293;545130;-76
2023/12/09 09:42:56;;;;;;;15.70;9.30;;;;;;;;;;104400;1292;544941;-77
2023/12/09 09:46:55;;;;;;;15.10;9.10;;;;;;;;;;103790;1289;545956;-77
2023/12/09 09:50:29;;;;;;;17.20;10.10;;;;;;;;;;103853;1289;544892;-76
2023/12/09 09:53:58;;;;;;;16.00;10.00;;;;;;;;;;103856;1292;544755;-74
2023/12/09 09:57:23;;;;;;;13.00;8.40;;;;;;;;;;103859;1290;545073;-76
2023/12/09 10:01:05;;;;;;;13.30;8.20;;;;;;;;;;103610;1288;547949;-76
2023/12/09 10:04:40;;;;;;;15.90;8.80;;;;;;;;;;103837;1295;545276;-73
2023/12/09 10:08:29;;;;;;;16.60;10.20;;;;;;;;;;103580;1297;545863;-83
2023/12/09 10:11:56;;;;;;;19.70;12.30;;;;;;;;;;103605;1291;546035;-74
2023/12/09 10:15:54;;;;;;;15.70;10.60;;;;;;;;;;103394;1294;548191;-83
2023/12/09 10:19:12;;;;;;;20.50;13.60;;;;;;;;;;103811;1296;544872;-76
2023/12/09 10:23:08;;;;;;;29.60;19.30;;;;;;;;;;103929;1292;544727;-76
2023/12/09 10:26:22;;;;;;;16.50;11.70;;;;;;;;;;103633;1298;545160;-77
2023/12/09 10:30:00;;;;;;;16.80;11.90;;;;;;;;;;103682;1293;545213;-76
2023/12/09 10:34:00;;;;;;;16.40;11.60;;;;;;;;;;103719;1291;545253;-82
2023/12/09 10:37:16;;;;;;;16.00;10.90;;;;;;;;;;103790;1292;545054;-81
2023/12/09 10:40:55;;;;;;;15.20;9.40;;;;;;;;;;104192;1285;546123;-75
2023/12/09 10:44:38;;;;;;;14.40;9.10;;;;;;;;;;103402;1294;547853;-86
2023/12/09 10:48:35;;;;;;;16.10;10.40;;;;;;;;;;103655;1291;547778;-81
2023/12/09 10:51:50;;;;;;;18.80;12.00;;;;;;;;;;103546;1292;549104;-81
2023/12/09 10:55:23;;;;;;;16.60;11.30;;;;;;;;;;103915;1293;545339;-78
2023/12/09 10:59:13;;;;;;;16.00;11.00;;;;;;;;;;103612;1295;549716;-81
2023/12/09 11:02:41;;;;;;;14.80;10.10;;;;;;;;;;103554;1294;544966;-83
2023/12/09 11:06:16;;;;;;;13.50;8.90;;;;;;;;;;103736;1295;545496;-79
2023/12/09 11:09:55;;;;;;;13.70;8.70;;;;;;;;;;103765;1293;545264;-79
2023/12/09 11:13:30;;;;;;;14.70;8.80;;;;;;;;;;104188;1285;545283;-77
2023/12/09 11:17:27;;;;;;;15.70;9.60;;;;;;;;;;104119;1288;545663;-77
2023/12/09 11:20:51;;;;;;;16.20;10.10;;;;;;;;;;103854;1293;548166;-77
2023/12/09 11:24:28;;;;;;;17.20;11.00;;;;;;;;;;103404;1298;545856;-77
2023/12/09 11:27:58;;;;;;;18.90;12.60;;;;;;;;;;103851;1290;546055;-77
2023/12/09 11:31:38;;;;;;;16.70;11.40;;;;;;;;;;103922;1289;545156;-77
2023/12/09 11:35:16;;;;;;;15.90;10.20;;;;;;;;;;103868;1289;544985;-77
2023/12/09 11:38:59;;;;;;;18.60;11.60;;;;;;;;;;104460;1286;545506;-78
2023/12/09 11:42:31;;;;;;;21.40;13.00;;;;;;;;;;103805;1289;547963;-77
2023/12/09 11:46:09;;;;;;;18.40;11.60;;;;;;;;;;104192;1297;544943;-79
2023/12/09 11:49:45;;;;;;;17.70;11.10;;;;;;;;;;103832;1289;548063;-77
2023/12/09 11:53:35;;;;;;;18.20;11.10;;;;;;;;;;103682;1295;549010;-82
2023/12/09 11:56:57;;;;;;;18.70;11.70;;;;;;;;;;104573;1283;545034;-77
2023/12/09 12:00:38;;;;;;;18.20;11.00;;;;;;;;;;104475;1281;545101;-78
2023/12/09 12:04:36;;;;;;;17.30;10.80;;;;;;;;;;103752;1291;545342;-80
2023/12/09 12:08:15;;;;;;;15.80;8.90;;;;;;;;;;104153;1289;545128;-78
2023/12/09 12:11:51;;;;;;;15.00;9.80;;;;;;;;;;103663;1295;550177;-73
2023/12/09 12:15:40;;;;;;;15.60;10.00;;;;;;;;;;103783;1289;544871;-75
2023/12/09 12:19:06;;;;;;;15.20;10.30;;;;;;;;;;103381;1292;548010;-78
2023/12/09 12:22:40;;;;;;;16.00;10.00;;;;;;;;;;103850;1295;545920;-77
2023/12/09 12:26:26;;;;;;;15.20;10.10;;;;;;;;;;103812;1290;545505;-77
2023/12/09 12:29:54;;;;;;;16.00;11.40;;;;;;;;;;103798;1292;545769;-78
2023/12/09 12:33:34;;;;;;;16.30;9.40;;;;;;;;;;103913;1290;548144;-76
2023/12/09 12:37:14;;;;;;;14.10;8.50;;;;;;;;;;103812;1289;548154;-80
2023/12/09 12:40:59;;;;;;;14.70;8.40;;;;;;;;;;103502;1297;549191;-80
2023/12/09 12:44:52;;;;;;;14.70;8.70;;;;;;;;;;103653;1297;546520;-77
2023/12/09 12:48:46;;;;;;;16.30;9.90;;;;;;;;;;103729;1294;548298;-82
2023/12/09 12:51:38;;;;;;;16.40;9.60;;;;;;;;;;103768;1304;545513;-76
2023/12/09 12:55:21;;;;;;;17.30;11.00;;;;;;;;;;103529;1294;547879;-76
2023/12/09 12:59:05;;;;;;;16.10;9.90;;;;;;;;;;103843;1291;550448;-77
2023/12/09 13:02:36;;;;;;;17.20;11.50;;;;;;;;;;104391;1284;547816;-75
2023/12/09 13:06:13;;;;;;;18.90;12.10;;;;;;;;;;103728;1289;547786;-76
2023/12/09 13:09:46;;;;;;;16.20;10.70;;;;;;;;;;103632;1292;545201;-76
2023/12/09 13:13:46;;;;;;;19.40;12.50;;;;;;;;;;104702;1287;547100;-76
2023/12/09 13:17:22;;;;;;;19.90;12.10;;;;;;;;;;103792;1289;544979;-78
2023/12/09 13:20:46;;;;;;;18.10;11.10;;;;;;;;;;103877;1289;546229;-76
2023/12/09 13:24:21;;;;;;;17.00;10.80;;;;;;;;;;103745;1292;544988;-77
2023/12/09 13:28:03;;;;;;;18.80;11.90;;;;;;;;;;103848;1289;544810;-77
2023/12/09 13:31:36;;;;;;;19.10;11.70;;;;;;;;;;103796;1292;545038;-76
2023/12/09 13:35:14;;;;;;;16.70;11.30;;;;;;;;;;104010;1288;548000;-77
2023/12/09 13:38:51;;;;;;;18.80;11.10;;;;;;;;;;103757;1295;545022;-79
2023/12/09 13:42:42;;;;;;;20.40;13.20;;;;;;;;;;103777;1291;548028;-78
2023/12/09 13:46:16;;;;;;;18.40;12.10;;;;;;;;;;103732;1296;545079;-76
2023/12/09 13:49:41;;;;;;;16.20;10.80;;;;;;;;;;104619;1283;544833;-75
2023/12/09 13:53:21;;;;;;;15.90;10.00;;;;;;;;;;104061;1286;546030;-78
2023/12/09 13:57:02;;;;;;;14.60;8.80;;;;;;;;;;103734;1302;547999;-74
2023/12/09 14:00:45;;;;;;;15.10;9.10;;;;;;;;;;103777;1288;545257;-76
2023/12/09 14:04:16;;;;;;;15.00;9.50;;;;;;;;;;103747;1291;545077;-76
2023/12/09 14:07:57;;;;;;;27.30;15.60;;;;;;;;;;103862;1292;547799;-76
2023/12/09 14:11:31;;;;;;;18.70;11.70;;;;;;;;;;103875;1291;545106;-75
2023/12/09 14:15:07;;;;;;;14.10;9.00;;;;;;;;;;103782;1290;544979;-75
2023/12/09 14:18:43;;;;;;;16.00;9.80;;;;;;;;;;103899;1296;545625;-74
2023/12/09 14:22:17;;;;;;;16.10;10.10;;;;;;;;;;103785;1289;546044;-77
2023/12/09 14:26:04;;;;;;;14.10;9.50;;;;;;;;;;103814;1292;546633;-73
2023/12/09 14:29:36;;;;;;;13.60;9.50;;;;;;;;;;103859;1289;544834;-75
2023/12/09 14:33:15;;;;;;;13.60;9.40;;;;;;;;;;103791;1288;544935;-75
2023/12/09 14:36:59;;;;;;;14.20;9.10;;;;;;;;;;103686;1297;548021;-76
2023/12/09 14:40:29;;;;;;;18.30;12.00;;;;;;;;;;103773;1289;544900;-75
2023/12/09 14:44:16;;;;;;;22.30;13.10;;;;;;;;;;104014;1286;545385;-77
2023/12/09 14:47:47;;;;;;;20.40;11.60;;;;;;;;;;103729;1295;544967;-75
2023/12/09 14:51:21;;;;;;;19.50;11.10;;;;;;;;;;103875;1291;545353;-81
2023/12/09 14:54:58;;;;;;;18.00;10.50;;;;;;;;;;103837;1302;544881;-77
2023/12/09 14:58:56;;;;;;;18.40;11.60;;;;;;;;;;103738;1292;548366;-77
2023/12/09 15:02:15;;;;;;;16.40;10.30;;;;;;;;;;103739;1291;544972;-75
2023/12/09 15:05:50;;;;;;;15.30;10.60;;;;;;;;;;103721;1295;545595;-77
2023/12/09 15:09:30;;;;;;;17.80;10.90;;;;;;;;;;103646;1292;544856;-76
2023/12/09 15:13:05;;;;;;;23.00;13.50;;;;;;;;;;104571;1282;544944;-75
2023/12/09 15:16:50;;;;;;;23.60;14.00;;;;;;;;;;103648;1295;547799;-76
2023/12/09 15:20:24;;;;;;;19.40;11.00;;;;;;;;;;103952;1288;548450;-74
2023/12/09 15:23:58;;;;;;;15.30;9.70;;;;;;;;;;103716;1292;545917;-75
2023/12/09 15:27:35;;;;;;;16.00;10.00;;;;;;;;;;103711;1292;545950;-75
2023/12/09 15:31:12;;;;;;;19.90;11.10;;;;;;;;;;103555;1297;545516;-75
2023/12/09 15:34:46;;;;;;;20.70;12.00;;;;;;;;;;103801;1292;544932;-75
2023/12/09 15:38:28;;;;;;;18.40;10.40;;;;;;;;;;103821;1292;544804;-74
2023/12/09 15:42:06;;;;;;;19.90;12.20;;;;;;;;;;104105;1289;545225;-74
2023/12/09 15:45:42;;;;;;;23.10;12.80;;;;;;;;;;103790;1302;544999;-74
2023/12/09 15:49:20;;;;;;;24.60;13.30;;;;;;;;;;104438;1282;545040;-74
2023/12/09 15:53:13;;;;;;;;;;;;;;;;;;;;;
2023/12/09 15:56:35;;;;;;;25.70;15.30;;;;;;;;;;103721;1300;544943;-75
2023/12/09 16:00:15;;;;;;;34.90;19.80;;;;;;;;;;103780;1289;545244;-76
2023/12/09 16:03:50;;;;;;;44.10;22.70;;;;;;;;;;104270;1285;544462;-74
2023/12/09 16:07:28;;;;;;;26.70;15.40;;;;;;;;;;103814;1292;544964;-76
2023/12/09 16:11:04;;;;;;;27.00;16.00;;;;;;;;;;103869;1291;544803;-74
2023/12/09 16:14:51;;;;;;;19.20;13.00;;;;;;;;;;103751;1289;546061;-77
2023/12/09 16:18:19;;;;;;;19.80;13.00;;;;;;;;;;103727;1295;545833;-75
2023/12/09 16:21:57;;;;;;;17.70;11.10;;;;;;;;;;103768;1290;545287;-74
2023/12/09 16:25:52;;;;;;;16.00;10.20;;;;;;;;;;103729;1302;545165;-75
2023/12/09 16:29:11;;;;;;;19.60;12.40;;;;;;;;;;103782;1291;545620;-73
2023/12/09 16:32:49;;;;;;;20.70;12.80;;;;;;;;;;103758;1290;545686;-73
2023/12/09 16:36:42;;;;;;;19.40;11.40;;;;;;;;;;103736;1292;549148;-74
2023/12/09 16:40:03;;;;;;;19.50;12.40;;;;;;;;;;103874;1292;545363;-73
2023/12/09 16:43:44;;;;;;;20.10;12.50;;;;;;;;;;103808;1289;544960;-75
2023/12/09 16:47:19;;;;;;;21.00;12.20;;;;;;;;;;103887;1288;544952;-74
2023/12/09 16:51:00;;;;;;;24.50;13.60;;;;;;;;;;103847;1289;545142;-75
2023/12/09 16:54:34;;;;;;;19.50;12.60;;;;;;;;;;103728;1291;544995;-76
2023/12/09 16:58:12;;;;;;;16.00;10.90;;;;;;;;;;103720;1291;545055;-76
2023/12/09 17:01:49;;;;;;;16.40;11.10;;;;;;;;;;103791;1288;545038;-72
2023/12/09 17:05:27;;;;;;;15.40;10.10;;;;;;;;;;103914;1292;545298;-76
2023/12/09 17:09:15;;;;;;;17.20;10.60;;;;;;;;;;103733;1292;544665;-75
2023/12/09 17:12:52;;;;;;;22.30;14.20;;;;;;;;;;103836;1289;545687;-73
2023/12/09 17:16:15;;;;;;;25.90;15.60;;;;;;;;;;103837;1292;544922;-77
2023/12/09 17:19:56;;;;;;;26.10;15.90;;;;;;;;;;103838;1291;544912;-75
2023/12/09 17:23:36;;;;;;;28.60;15.80;;;;;;;;;;103779;1295;544990;-77
2023/12/09 17:27:33;;;;;;;32.50;16.60;;;;;;;;;;103645;1291;545594;-74
2023/12/09 17:30:49;;;;;;;24.50;13.70;;;;;;;;;;103755;1289;544987;-74
2023/12/09 17:34:30;;;;;;;28.10;15.60;;;;;;;;;;103893;1291;544880;-74
2023/12/09 17:38:04;;;;;;;25.50;15.10;;;;;;;;;;103828;1291;545485;-74
2023/12/09 17:41:43;;;;;;;23.50;14.50;;;;;;;;;;103572;1295;545499;-76
2023/12/09 17:45:18;;;;;;;21.00;12.20;;;;;;;;;;103823;1298;544767;-74
2023/12/09 17:48:58;;;;;;;23.60;13.40;;;;;;;;;;104039;1289;544960;-72
2023/12/09 17:52:38;;;;;;;22.20;12.40;;;;;;;;;;103874;1288;544842;-73
2023/12/09 17:56:11;;;;;;;21.60;11.90;;;;;;;;;;103560;1294;545608;-74
2023/12/09 17:59:48;;;;;;;26.50;15.60;;;;;;;;;;103584;1295;544863;-73
2023/12/09 18:03:31;;;;;;;31.00;18.70;;;;;;;;;;103943;1295;544822;-76
2023/12/09 18:07:12;;;;;;;25.40;16.00;;;;;;;;;;103859;1290;545348;-73
2023/12/09 18:10:43;;;;;;;20.20;12.80;;;;;;;;;;103686;1291;545447;-77
2023/12/09 18:14:17;;;;;;;21.90;14.50;;;;;;;;;;103814;1289;545054;-72
2023/12/09 18:18:15;;;;;;;22.00;15.10;;;;;;;;;;103794;1291;546077;-74
2023/12/09 18:21:34;;;;;;;22.10;14.50;;;;;;;;;;103761;1291;545060;-73
2023/12/09 18:25:25;;;;;;;22.10;14.30;;;;;;;;;;103727;1295;547993;-77
2023/12/09 18:28:50;;;;;;;22.20;14.50;;;;;;;;;;104443;1283;545315;-75
2023/12/09 18:32:32;;;;;;;22.90;16.60;;;;;;;;;;103563;1294;544964;-75
2023/12/09 18:36:06;;;;;;;24.60;16.90;;;;;;;;;;103687;1291;544920;-74
2023/12/09 18:40:00;;;;;;;25.60;16.10;;;;;;;;;;103810;1292;547993;-75
2023/12/09 18:43:17;;;;;;;23.90;15.90;;;;;;;;;;103754;1294;545357;-74
2023/12/09 18:46:54;;;;;;;30.50;18.80;;;;;;;;;;103911;1292;545907;-74
2023/12/09 18:50:35;;;;;;;37.70;22.80;;;;;;;;;;103852;1289;545397;-74
2023/12/09 18:54:14;;;;;;;29.90;18.00;;;;;;;;;;103495;1298;548145;-75
2023/12/09 18:57:50;;;;;;;23.30;14.70;;;;;;;;;;103802;1289;544856;-76
2023/12/09 19:01:34;;;;;;;21.30;13.80;;;;;;;;;;103738;1292;545375;-74
2023/12/09 19:05:02;;;;;;;25.00;14.60;;;;;;;;;;103533;1294;544843;-74
2023/12/09 19:08:46;;;;;;;22.80;14.40;;;;;;;;;;103733;1289;549007;-74
2023/12/09 19:12:18;;;;;;;23.70;13.50;;;;;;;;;;103765;1289;544864;-73
2023/12/09 19:16:01;;;;;;;40.70;20.80;;;;;;;;;;103651;1292;548114;-73
2023/12/09 19:19:32;;;;;;;37.80;19.80;;;;;;;;;;103808;1289;544849;-73
2023/12/09 19:23:10;;;;;;;29.20;15.20;;;;;;;;;;103917;1293;545340;-75
2023/12/09 19:26:50;;;;;;;21.50;11.90;;;;;;;;;;104519;1283;544802;-75
2023/12/09 19:30:26;;;;;;;19.20;10.30;;;;;;;;;;103774;1288;544773;-75
2023/12/09 19:34:02;;;;;;;16.90;9.50;;;;;;;;;;103880;1301;544942;-74
2023/12/09 19:37:42;;;;;;;16.20;10.10;;;;;;;;;;104585;1286;545244;-75
2023/12/09 19:41:17;;;;;;;17.70;10.70;;;;;;;;;;104044;1288;545175;-76
2023/12/09 19:44:55;;;;;;;18.30;10.50;;;;;;;;;;103776;1293;545838;-72
2023/12/09 19:48:32;;;;;;;21.20;10.70;;;;;;;;;;103759;1291;544943;-78
2023/12/09 19:52:09;;;;;;;21.30;11.80;;;;;;;;;;103511;1295;545804;-74
2023/12/09 19:55:46;;;;;;;23.30;12.10;;;;;;;;;;103777;1291;544786;-73
2023/12/09 19:59:24;;;;;;;19.80;10.60;;;;;;;;;;103766;1289;545036;-74
2023/12/09 20:03:04;;;;;;;21.90;11.10;;;;;;;;;;103738;1294;545264;-75
2023/12/09 20:06:39;;;;;;;23.80;11.80;;;;;;;;;;103802;1292;545016;-76
2023/12/09 20:10:22;;;;;;;19.50;11.30;;;;;;;;;;103995;1288;544852;-74
2023/12/09 20:13:55;;;;;;;20.40;10.60;;;;;;;;;;103679;1292;545089;-73
2023/12/09 20:17:32;;;;;;;21.50;11.20;;;;;;;;;;103913;1289;544982;-73
2023/12/09 20:21:10;;;;;;;19.30;10.30;;;;;;;;;;104185;1288;545231;-76
2023/12/09 20:24:47;;;;;;;16.20;8.70;;;;;;;;;;103513;1297;545469;-74
2023/12/09 20:28:25;;;;;;;16.00;8.30;;;;;;;;;;103627;1295;544670;-74
2023/12/09 20:32:02;;;;;;;16.30;8.60;;;;;;;;;;103786;1291;545664;-74
2023/12/09 20:35:40;;;;;;;13.60;8.10;;;;;;;;;;103789;1295;545489;-73
2023/12/09 20:39:16;;;;;;;12.40;7.60;;;;;;;;;;103799;1291;544777;-75